createdAt,value
2022-10-20T00:01:36.099Z,18.38
2022-10-20T00:04:18.874Z,19.05
2022-10-20T00:07:01.925Z,15.95
2022-10-20T00:09:42.906Z,16.08
2022-10-20T00:15:04.190Z,22.67
2022-10-20T00:17:49.137Z,17.13
2022-10-20T00:20:32.014Z,29.55
2022-10-20T00:23:20.552Z,40.95
2022-10-20T00:26:06.294Z,49.38
2022-10-20T00:28:59.506Z,43.80
2022-10-20T00:31:43.628Z,34.72
2022-10-20T00:34:20.988Z,32.55
2022-10-20T00:36:55.721Z,31.33
2022-10-20T00:39:34.226Z,34.00
2022-10-20T00:42:06.405Z,29.02
2022-10-20T00:44:53.243Z,32.80
2022-10-20T00:48:01.000Z,28.40
2022-10-20T00:50:48.243Z,26.20
2022-10-20T00:53:19.782Z,27.33
2022-10-20T00:55:58.088Z,25.02
2022-10-20T00:58:36.883Z,23.02
2022-10-20T01:01:13.160Z,29.42
2022-10-20T01:03:56.506Z,23.08
2022-10-20T01:06:31.631Z,23.42
2022-10-20T01:09:12.277Z,25.65
2022-10-20T01:12:11.309Z,26.45
2022-10-20T01:15:10.823Z,26.38
2022-10-20T01:17:54.623Z,26.17
2022-10-20T01:20:50.924Z,28.58
2022-10-20T01:24:01.282Z,26.27
2022-10-20T01:26:46.554Z,26.85
2022-10-20T01:30:02.267Z,35.88
2022-10-20T01:32:56.665Z,36.30
2022-10-20T01:35:49.878Z,32.80
2022-10-20T01:38:53.115Z,23.10
2022-10-20T01:41:34.150Z,35.70
2022-10-20T01:44:12.545Z,38.40
2022-10-20T01:46:56.975Z,38.63
2022-10-20T01:49:36.250Z,39.67
2022-10-20T01:52:15.570Z,38.38
2022-10-20T01:54:59.188Z,32.80
2022-10-20T01:57:53.010Z,34.08
2022-10-20T02:00:35.790Z,31.02
2022-10-20T02:03:40.217Z,30.20
2022-10-20T02:06:36.091Z,31.15
2022-10-20T02:09:31.449Z,28.35
2022-10-20T02:12:14.515Z,30.10
2022-10-20T02:14:50.665Z,32.80
2022-10-20T02:17:36.921Z,27.85
2022-10-20T02:20:15.260Z,31.23
2022-10-20T02:22:53.367Z,29.88
2022-10-20T02:25:36.125Z,29.75
2022-10-20T02:28:16.375Z,26.27
2022-10-20T02:31:03.821Z,28.30
2022-10-20T02:33:48.926Z,33.88
2022-10-20T02:36:20.978Z,36.78
2022-10-20T02:38:58.591Z,37.47
2022-10-20T02:41:40.027Z,36.35
2022-10-20T02:44:23.748Z,36.72
2022-10-20T02:46:58.945Z,32.55
2022-10-20T02:49:34.608Z,31.35
2022-10-20T02:52:10.279Z,28.55
2022-10-20T02:54:53.659Z,25.80
2022-10-20T02:57:34.622Z,27.67
2022-10-20T03:00:13.781Z,31.88
2022-10-20T03:02:59.363Z,30.63
2022-10-20T03:05:47.585Z,30.90
2022-10-20T03:08:30.688Z,35.95
2022-10-20T03:11:21.705Z,42.78
2022-10-20T03:14:05.033Z,44.95
2022-10-20T03:16:42.658Z,47.55
2022-10-20T03:19:20.568Z,42.25
2022-10-20T03:22:03.549Z,41.70
2022-10-20T03:24:48.901Z,42.15
2022-10-20T03:27:39.963Z,41.95
2022-10-20T03:30:20.995Z,39.33
2022-10-20T03:32:56.991Z,40.08
2022-10-20T03:35:37.259Z,42.90
2022-10-20T03:38:24.641Z,43.17
2022-10-20T03:41:05.949Z,43.53
2022-10-20T03:43:46.778Z,46.95
2022-10-20T03:46:37.314Z,49.40
2022-10-20T03:49:16.749Z,43.13
2022-10-20T03:52:00.238Z,44.80
2022-10-20T03:54:46.684Z,39.83
2022-10-20T03:57:36.443Z,39.08
2022-10-20T04:00:17.696Z,43.72
2022-10-20T04:02:55.395Z,41.45
2022-10-20T04:05:39.459Z,41.67
2022-10-20T04:08:19.929Z,47.72
2022-10-20T04:10:51.891Z,54.00
2022-10-20T04:13:29.582Z,60.35
2022-10-20T04:16:15.721Z,61.92
2022-10-20T04:19:09.743Z,61.97
2022-10-20T04:21:50.129Z,67.50
2022-10-20T04:24:24.551Z,75.65
2022-10-20T04:27:01.871Z,60.05
2022-10-20T04:29:50.302Z,54.30
2022-10-20T04:32:39.152Z,46.85
2022-10-20T04:35:17.050Z,44.28
2022-10-20T04:37:51.876Z,43.08
2022-10-20T04:40:33.236Z,41.42
2022-10-20T04:43:17.502Z,42.03
2022-10-20T04:46:11.541Z,42.95
2022-10-20T04:48:56.264Z,43.75
2022-10-20T04:51:35.693Z,38.33
2022-10-20T04:54:16.777Z,44.45
2022-10-20T04:57:01.112Z,39.90
2022-10-20T04:59:42.274Z,38.25
2022-10-20T05:02:34.952Z,41.28
2022-10-20T05:05:09.231Z,40.60
2022-10-20T05:07:50.236Z,38.92
2022-10-20T05:10:34.452Z,39.90
2022-10-20T05:13:18.356Z,45.47
2022-10-20T05:16:04.556Z,41.33
2022-10-20T05:18:48.506Z,47.47
2022-10-20T05:21:25.441Z,47.88
2022-10-20T05:24:05.501Z,51.78
2022-10-20T05:26:39.335Z,43.13
2022-10-20T05:29:21.022Z,45.75
2022-10-20T05:31:59.315Z,52.17
2022-10-20T05:34:43.895Z,48.30
2022-10-20T05:37:24.198Z,53.80
2022-10-20T05:40:06.616Z,62.20
2022-10-20T05:42:40.784Z,73.60
2022-10-20T05:45:25.533Z,75.53
2022-10-20T05:48:06.328Z,68.25
2022-10-20T05:50:49.387Z,84.95
2022-10-20T05:53:29.272Z,85.28
2022-10-20T05:56:12.764Z,110.70
2022-10-20T05:58:56.835Z,127.50
2022-10-20T06:01:56.809Z,125.25
2022-10-20T06:04:39.687Z,140.07
2022-10-20T06:07:20.592Z,137.00
2022-10-20T06:09:58.504Z,147.18
2022-10-20T06:12:43.700Z,172.48
2022-10-20T06:15:24.195Z,185.48
2022-10-20T06:18:06.204Z,173.35
2022-10-20T06:20:41.613Z,187.57
2022-10-20T06:23:25.213Z,179.48
2022-10-20T06:26:07.281Z,185.88
2022-10-20T06:28:51.259Z,176.68
2022-10-20T06:31:32.947Z,179.90
2022-10-20T06:34:17.661Z,163.35
2022-10-20T06:36:58.595Z,165.57
2022-10-20T06:39:40.167Z,151.82
2022-10-20T06:42:15.003Z,144.25
2022-10-20T06:46:00.341Z,136.38
2022-10-20T06:49:08.331Z,111.68
2022-10-20T06:51:55.041Z,107.47
2022-10-20T06:54:41.630Z,86.57
2022-10-20T06:57:27.530Z,69.18
2022-10-20T07:00:05.013Z,59.42
2022-10-20T07:02:49.585Z,43.45
2022-10-20T07:05:30.275Z,39.15
2022-10-20T07:08:11.942Z,31.90
2022-10-20T07:11:00.541Z,31.20
2022-10-20T07:13:41.965Z,26.15
2022-10-20T07:16:22.874Z,23.15
2022-10-20T07:19:12.082Z,21.35
2022-10-20T07:21:52.358Z,16.25
2022-10-20T07:24:30.669Z,16.05
2022-10-20T07:27:10.839Z,12.15
2022-10-20T07:29:52.508Z,12.05
2022-10-20T07:32:31.382Z,12.82
2022-10-20T07:35:09.504Z,12.05
2022-10-20T07:37:44.668Z,12.15
2022-10-20T07:40:20.010Z,10.48
2022-10-20T07:43:07.214Z,17.45
2022-10-20T07:45:45.661Z,12.43
2022-10-20T07:48:29.395Z,12.55
2022-10-20T07:51:30.990Z,14.98
2022-10-20T07:54:08.594Z,13.20
2022-10-20T07:56:57.767Z,12.98
2022-10-20T07:59:35.779Z,18.80
2022-10-20T08:02:23.707Z,14.48
2022-10-20T08:04:56.111Z,13.30
2022-10-20T08:07:33.839Z,14.52
2022-10-20T08:10:17.538Z,15.85
2022-10-20T08:12:54.751Z,8.73
2022-10-20T08:15:36.769Z,9.27
2022-10-20T08:18:11.360Z,7.22
2022-10-20T08:20:51.715Z,7.35
2022-10-20T08:23:29.025Z,7.38
2022-10-20T08:26:11.461Z,8.98
2022-10-20T08:28:51.785Z,7.20
2022-10-20T08:31:34.745Z,7.45
2022-10-20T08:34:12.528Z,7.70
2022-10-20T08:36:44.667Z,6.50
2022-10-20T08:39:24.851Z,6.80
2022-10-20T08:42:08.404Z,7.00
2022-10-20T08:44:50.942Z,7.75
2022-10-20T08:47:32.492Z,7.45
2022-10-20T08:50:12.194Z,10.88
2022-10-20T08:52:51.188Z,10.43
2022-10-20T08:55:36.372Z,9.13
2022-10-20T08:58:20.191Z,5.20
2022-10-20T09:01:01.319Z,5.90
2022-10-20T09:03:42.644Z,8.55
2022-10-20T09:06:19.546Z,10.10
2022-10-20T09:09:05.558Z,6.35
2022-10-20T09:11:43.876Z,7.05
2022-10-20T09:14:27.186Z,6.10
2022-10-20T09:17:17.054Z,5.97
2022-10-20T09:20:01.188Z,6.75
2022-10-20T09:22:35.684Z,7.45
2022-10-20T09:25:20.027Z,8.07
2022-10-20T09:30:41.241Z,9.05
2022-10-20T09:33:47.375Z,8.95
2022-10-20T09:36:30.374Z,7.15
2022-10-20T09:39:08.238Z,8.98
2022-10-20T09:41:43.352Z,8.95
2022-10-20T09:44:25.859Z,9.60
2022-10-20T09:47:06.682Z,8.77
2022-10-20T09:49:47.363Z,9.02
2022-10-20T09:52:34.329Z,11.82
2022-10-20T09:55:30.885Z,9.40
2022-10-20T09:58:12.825Z,10.95
2022-10-20T10:01:08.684Z,10.90
2022-10-20T10:03:58.588Z,8.38
2022-10-20T10:06:49.594Z,9.57
2022-10-20T10:10:08.263Z,7.95
2022-10-20T10:13:00.741Z,11.48
2022-10-20T10:15:43.182Z,9.23
2022-10-20T10:18:28.342Z,8.57
2022-10-20T10:21:30.989Z,8.73
2022-10-20T10:24:09.724Z,6.55
2022-10-20T10:26:58.786Z,8.43
2022-10-20T10:29:49.483Z,8.05
2022-10-20T10:32:23.029Z,8.35
2022-10-20T10:35:18.034Z,7.45
2022-10-20T10:38:00.958Z,6.45
2022-10-20T10:40:51.234Z,8.98
2022-10-20T10:43:39.508Z,9.55
2022-10-20T10:46:26.873Z,8.20
2022-10-20T10:49:38.732Z,6.85
2022-10-20T10:52:33.658Z,8.77
2022-10-20T10:55:47.728Z,8.00
2022-10-20T10:58:29.609Z,7.72
2022-10-20T11:01:12.658Z,7.20
2022-10-20T11:04:04.636Z,8.95
2022-10-20T11:06:57.066Z,10.32
2022-10-20T11:09:47.546Z,12.40
2022-10-20T11:13:01.449Z,7.53
2022-10-20T11:15:46.329Z,6.18
2022-10-20T11:18:53.876Z,5.93
2022-10-20T11:22:02.221Z,8.60
2022-10-20T11:25:01.818Z,6.70
2022-10-20T11:27:47.518Z,7.40
2022-10-20T11:30:32.542Z,4.72
2022-10-20T11:33:26.818Z,7.10
2022-10-20T11:36:40.239Z,7.20
2022-10-20T11:39:28.943Z,9.80
2022-10-20T11:42:18.493Z,6.07
2022-10-20T11:44:54.475Z,8.05
2022-10-20T11:47:59.496Z,6.05
2022-10-20T11:50:40.381Z,11.13
2022-10-20T11:53:33.609Z,7.90
2022-10-20T11:56:37.334Z,9.35
2022-10-20T11:59:31.662Z,8.23
2022-10-20T12:05:23.584Z,6.05
2022-10-20T12:08:29.780Z,9.10
2022-10-20T12:11:21.484Z,10.05
2022-10-20T12:14:11.441Z,5.78
2022-10-20T12:16:59.146Z,8.95
2022-10-20T12:19:41.650Z,9.18
2022-10-20T12:22:46.153Z,17.52
2022-10-20T12:25:40.423Z,12.52
2022-10-20T12:28:30.971Z,10.60
2022-10-20T12:31:10.875Z,9.85
2022-10-20T12:34:16.694Z,11.35
2022-10-20T12:36:54.710Z,8.52
2022-10-20T12:39:40.662Z,11.18
2022-10-20T12:42:39.270Z,6.32
2022-10-20T12:45:27.353Z,7.90
2022-10-20T12:48:04.782Z,8.75
2022-10-20T12:50:57.577Z,5.65
2022-10-20T12:53:40.575Z,6.43
2022-10-20T12:56:17.446Z,13.18
2022-10-20T12:59:21.432Z,14.82
2022-10-20T13:02:24.777Z,8.30
2022-10-20T13:05:02.966Z,8.45
2022-10-20T13:07:52.676Z,7.45
2022-10-20T13:10:38.016Z,12.43
2022-10-20T13:16:10.304Z,8.13
2022-10-20T13:18:50.713Z,10.38
2022-10-20T13:21:32.628Z,7.50
2022-10-20T13:24:23.328Z,10.95
2022-10-20T13:27:05.332Z,8.48
2022-10-20T13:29:55.206Z,20.73
2022-10-20T13:32:47.803Z,10.80
2022-10-20T13:36:02.723Z,7.38
2022-10-20T13:38:58.961Z,6.65
2022-10-20T13:42:10.232Z,11.23
2022-10-20T13:44:57.916Z,6.15
2022-10-20T13:47:36.432Z,10.18
2022-10-20T13:53:06.037Z,7.15
2022-10-20T13:56:07.140Z,7.13
2022-10-20T13:58:48.257Z,5.55
2022-10-20T14:01:29.038Z,7.45
2022-10-20T14:04:20.163Z,7.10
2022-10-20T14:06:52.811Z,9.70
2022-10-20T14:09:35.185Z,5.72
2022-10-20T14:12:26.850Z,12.05
2022-10-20T14:15:04.445Z,4.07
2022-10-20T14:17:55.202Z,9.13
2022-10-20T14:20:33.366Z,7.43
2022-10-20T14:23:09.598Z,6.88
2022-10-20T14:25:52.937Z,7.50
2022-10-20T14:28:40.032Z,8.73
2022-10-20T14:31:27.474Z,5.97
2022-10-20T14:34:23.998Z,8.02
2022-10-20T14:37:08.232Z,7.43
2022-10-20T14:39:52.399Z,8.10
2022-10-20T14:42:39.155Z,7.78
2022-10-20T14:45:25.407Z,6.55
2022-10-20T14:48:03.198Z,6.90
2022-10-20T14:50:50.215Z,4.63
2022-10-20T14:53:37.234Z,11.02
2022-10-20T14:56:37.187Z,8.63
2022-10-20T14:59:23.323Z,7.35
2022-10-20T15:02:14.312Z,6.25
2022-10-20T15:04:52.313Z,7.65
2022-10-20T15:07:41.087Z,5.22
2022-10-20T15:10:17.312Z,6.00
2022-10-20T15:12:56.133Z,6.00
2022-10-20T15:15:55.349Z,5.65
2022-10-20T15:18:37.909Z,5.47
2022-10-20T15:21:41.785Z,5.03
2022-10-20T15:24:28.734Z,9.98
2022-10-20T15:27:18.341Z,8.52
2022-10-20T15:29:57.449Z,27.73
2022-10-20T15:32:37.834Z,15.43
2022-10-20T15:35:24.269Z,20.73
2022-10-20T15:38:07.405Z,23.65
2022-10-20T15:40:50.246Z,6.20
2022-10-20T15:43:24.409Z,12.18
2022-10-20T15:46:05.932Z,8.63
2022-10-20T15:48:45.642Z,14.27
2022-10-20T15:51:40.222Z,55.60
2022-10-20T15:54:16.045Z,61.78
2022-10-20T15:56:47.815Z,15.82
2022-10-20T15:59:57.977Z,40.42
2022-10-20T16:02:35.692Z,44.08
2022-10-20T16:05:24.349Z,32.65
2022-10-20T16:10:55.019Z,26.90
2022-10-20T16:13:38.481Z,24.13
2022-10-20T16:16:17.341Z,29.48
2022-10-20T16:19:09.585Z,32.35
2022-10-20T16:21:56.483Z,39.88
2022-10-20T16:24:40.084Z,38.15
2022-10-20T16:27:28.580Z,40.05
2022-10-20T16:30:10.291Z,76.35
2022-10-20T16:35:36.215Z,163.98
2022-10-20T16:38:18.612Z,135.13
2022-10-20T16:41:19.816Z,132.30
2022-10-20T16:44:04.104Z,169.73
2022-10-20T16:46:44.830Z,138.02
2022-10-20T16:49:48.110Z,127.30
2022-10-20T16:52:29.476Z,97.28
2022-10-20T16:55:11.214Z,72.40
2022-10-20T16:57:46.687Z,59.35
2022-10-20T17:00:33.752Z,55.05
2022-10-20T17:03:20.186Z,49.17
2022-10-20T17:06:02.138Z,40.50
2022-10-20T17:08:45.186Z,46.17
2022-10-20T17:11:22.507Z,49.33
2022-10-20T17:14:04.045Z,55.00
2022-10-20T17:16:47.368Z,48.15
2022-10-20T17:19:28.238Z,46.42
2022-10-20T17:22:06.477Z,45.55
2022-10-20T17:24:47.131Z,44.00
2022-10-20T17:27:27.632Z,36.88
2022-10-20T17:30:21.852Z,39.17
2022-10-20T17:33:07.456Z,38.92
2022-10-20T17:35:37.489Z,32.53
2022-10-20T17:38:14.243Z,38.35
2022-10-20T17:40:52.294Z,46.13
2022-10-20T17:43:34.402Z,33.25
2022-10-20T17:46:08.910Z,39.40
2022-10-20T17:48:43.862Z,33.92
2022-10-20T17:51:33.383Z,32.55
2022-10-20T17:54:20.565Z,32.53
2022-10-20T17:57:01.171Z,28.42
2022-10-20T17:59:47.304Z,34.38
2022-10-20T18:02:35.594Z,30.92
2022-10-20T18:05:14.479Z,32.38
2022-10-20T18:07:46.063Z,41.42
2022-10-20T18:10:18.482Z,35.33
2022-10-20T18:12:56.624Z,40.70
2022-10-20T18:15:34.736Z,44.95
2022-10-20T18:18:16.268Z,44.33
2022-10-20T18:21:12.394Z,54.17
2022-10-20T18:23:58.929Z,51.67
2022-10-20T18:26:37.433Z,51.75
2022-10-20T18:29:16.922Z,54.78
2022-10-20T18:31:58.194Z,58.60
2022-10-20T18:34:38.574Z,48.60
2022-10-20T18:37:19.375Z,53.83
2022-10-20T18:39:55.281Z,43.60
2022-10-20T18:42:34.326Z,49.13
2022-10-20T18:45:15.071Z,49.33
2022-10-20T18:47:52.686Z,62.38
2022-10-20T18:50:24.946Z,64.93
2022-10-20T18:53:00.286Z,72.35
2022-10-20T18:55:41.174Z,79.00
2022-10-20T18:58:16.084Z,89.80
2022-10-20T19:00:50.356Z,89.55
2022-10-20T19:03:35.237Z,104.70
2022-10-20T19:06:13.884Z,94.68
2022-10-20T19:08:49.918Z,107.00
2022-10-20T19:11:26.928Z,104.53
2022-10-20T19:14:05.678Z,109.75
2022-10-20T19:16:46.142Z,100.75
2022-10-20T19:19:28.724Z,100.93
2022-10-20T19:22:06.741Z,94.15
2022-10-20T19:24:47.041Z,103.18
2022-10-20T19:27:26.996Z,85.18
2022-10-20T19:30:03.076Z,97.53
2022-10-20T19:32:52.366Z,84.28
2022-10-20T19:35:27.993Z,84.93
2022-10-20T19:38:08.360Z,94.95
2022-10-20T19:40:44.327Z,93.32
2022-10-20T19:43:25.194Z,91.78
2022-10-20T19:46:14.734Z,95.28
2022-10-20T19:48:53.579Z,84.80
2022-10-20T19:51:38.393Z,87.47
2022-10-20T19:54:11.986Z,82.25
2022-10-20T19:59:26.352Z,83.70
2022-10-20T20:02:10.091Z,76.75
2022-10-20T20:04:49.972Z,79.15
2022-10-20T20:07:29.821Z,69.18
2022-10-20T20:10:10.247Z,77.15
2022-10-20T20:12:48.213Z,70.07
2022-10-20T20:15:25.117Z,78.10
2022-10-20T20:18:13.075Z,76.95
2022-10-20T20:20:44.258Z,72.95
2022-10-20T20:23:26.079Z,71.32
2022-10-20T20:26:26.402Z,73.03
2022-10-20T20:29:15.408Z,75.22
2022-10-20T20:31:57.981Z,72.38
2022-10-20T20:34:29.693Z,77.93
2022-10-20T20:37:01.909Z,72.20
2022-10-20T20:39:35.751Z,77.65
2022-10-20T20:42:14.194Z,72.78
2022-10-20T20:44:56.287Z,68.22
2022-10-20T20:47:31.454Z,62.25
2022-10-20T20:50:15.530Z,58.55
2022-10-20T20:52:47.488Z,57.63
2022-10-20T20:55:22.380Z,55.72
2022-10-20T20:57:54.442Z,63.70
2022-10-20T21:00:34.438Z,56.38
2022-10-20T21:03:11.467Z,59.25
2022-10-20T21:05:42.534Z,54.25
2022-10-20T21:08:15.390Z,53.25
2022-10-20T21:10:53.516Z,55.38
2022-10-20T21:13:42.026Z,53.65
2022-10-20T21:16:32.863Z,57.15
2022-10-20T21:19:17.544Z,57.30
2022-10-20T21:22:01.244Z,60.83
2022-10-20T21:24:40.683Z,63.35
2022-10-20T21:27:26.660Z,59.05
2022-10-20T21:30:04.040Z,73.35
2022-10-20T21:32:45.350Z,64.30
2022-10-20T21:35:22.519Z,68.53
2022-10-20T21:38:04.162Z,64.40
2022-10-20T21:40:39.368Z,68.78
2022-10-20T21:43:14.168Z,70.45
2022-10-20T21:45:53.896Z,65.30
2022-10-20T21:48:38.750Z,62.75
2022-10-20T21:51:24.224Z,71.63
2022-10-20T21:54:15.393Z,65.63
2022-10-20T21:56:50.408Z,70.18
2022-10-20T21:59:30.450Z,75.65
2022-10-20T22:02:05.617Z,76.88
2022-10-20T22:04:41.112Z,78.47
2022-10-20T22:07:24.422Z,74.55
2022-10-20T22:10:10.578Z,78.82
2022-10-20T22:12:48.093Z,76.88
2022-10-20T22:15:37.041Z,79.18
2022-10-20T22:18:17.641Z,75.68
2022-10-20T22:20:56.194Z,73.30
2022-10-20T22:23:30.722Z,74.13
2022-10-20T22:26:11.426Z,74.13
2022-10-20T22:28:43.373Z,70.40
2022-10-20T22:31:32.345Z,78.20
2022-10-20T22:34:15.394Z,67.78
2022-10-20T22:36:58.353Z,73.43
2022-10-20T22:39:43.197Z,75.38
2022-10-20T22:42:25.616Z,69.47
2022-10-20T22:45:06.645Z,80.63
2022-10-20T22:47:56.226Z,79.32
2022-10-20T22:50:37.936Z,75.03
2022-10-20T22:53:16.450Z,79.28
2022-10-20T22:55:51.135Z,76.72
2022-10-20T22:58:30.180Z,71.53
2022-10-20T23:01:19.268Z,79.18
2022-10-20T23:03:59.615Z,73.10
2022-10-20T23:06:45.108Z,77.30
2022-10-20T23:09:17.683Z,79.45
2022-10-20T23:11:56.572Z,75.85
2022-10-20T23:14:31.978Z,73.95
2022-10-20T23:17:06.863Z,71.82
2022-10-20T23:19:44.231Z,72.95
2022-10-20T23:22:29.494Z,71.07
2022-10-20T23:25:13.157Z,67.43
2022-10-20T23:27:58.511Z,72.53
2022-10-20T23:30:43.690Z,70.78
2022-10-20T23:33:34.439Z,73.03
2022-10-20T23:36:14.578Z,79.97
2022-10-20T23:38:53.929Z,66.47
2022-10-20T23:41:31.819Z,71.43
2022-10-20T23:44:06.534Z,74.43
2022-10-20T23:46:46.377Z,65.95
2022-10-20T23:49:27.386Z,71.00
2022-10-20T23:52:11.150Z,74.60
2022-10-20T23:54:54.173Z,69.30
2022-10-20T23:57:32.165Z,68.50
